Time;durP1;ratioP1;P1;durP2;ratioP2;P2;SDS_P1;SDS_P2;PMS_P1;PMS_P2;Temp;Humidity;BMP_temperature;BMP_pressure;BME280_temperature;BME280_humidity;BME280_pressure;Samples;Min_cycle;Max_cycle;Signal;HPM_P1;HPM_P2
2022/10/18 00:00:51;;;;;;;17.73;7.43;;;27.80;93.90;;;;;;5028346;28;20056;-55
2022/10/18 00:03:20;;;;;;;18.52;7.72;;;27.70;94.10;;;;;;5026495;28;20045;-56
2022/10/18 00:05:48;;;;;;;15.02;7.25;;;27.70;94.20;;;;;;5036345;28;20038;-54
2022/10/18 00:08:15;;;;;;;10.00;5.38;;;27.70;94.20;;;;;;5029749;28;20020;-54
2022/10/18 00:10:47;;;;;;;11.02;5.70;;;27.70;94.10;;;;;;5031561;28;20175;-56
2022/10/18 00:13:13;;;;;;;12.68;4.55;;;27.60;93.90;;;;;;5039254;28;20398;-52
2022/10/18 00:15:47;;;;;;;8.35;3.75;;;27.60;93.80;;;;;;5020557;28;20038;-54
2022/10/18 00:18:13;;;;;;;8.55;3.47;;;27.60;93.70;;;;;;5020416;28;20030;-54
2022/10/18 00:20:41;;;;;;;8.15;2.88;;;27.50;93.60;;;;;;5015128;28;20031;-53
2022/10/18 00:23:08;;;;;;;7.82;3.50;;;27.50;93.50;;;;;;5013913;28;20045;-52
2022/10/18 00:25:35;;;;;;;5.07;2.53;;;27.50;93.50;;;;;;5000539;28;20039;-57
2022/10/18 00:28:02;;;;;;;8.05;2.38;;;27.50;93.40;;;;;;5007446;28;20321;-53
2022/10/18 00:30:31;;;;;;;6.72;2.22;;;27.40;93.10;;;;;;5007492;28;20041;-52
2022/10/18 00:32:58;;;;;;;8.02;2.20;;;27.40;93.10;;;;;;5002464;28;20019;-56
2022/10/18 00:35:28;;;;;;;4.07;1.63;;;27.40;93.00;;;;;;5003174;28;20038;-55
2022/10/18 00:37:55;;;;;;;4.05;1.55;;;27.40;92.70;;;;;;5005453;28;20034;-53
2022/10/18 00:40:21;;;;;;;7.38;1.80;;;27.40;92.70;;;;;;5019132;28;20137;-54
2022/10/18 00:42:48;;;;;;;2.70;1.60;;;27.40;92.80;;;;;;4987456;28;20081;-54
2022/10/18 00:45:21;;;;;;;6.65;2.00;;;27.30;92.80;;;;;;5005217;28;20328;-59
2022/10/18 00:47:58;;;;;;;7.85;1.85;;;27.30;92.80;;;;;;5006351;28;20077;-53
2022/10/18 00:50:30;;;;;;;7.70;2.53;;;27.30;92.90;;;;;;5006733;28;20033;-55
2022/10/18 00:52:59;;;;;;;13.20;2.90;;;27.40;92.80;;;;;;5006874;28;19902;-57
2022/10/18 00:55:27;;;;;;;12.65;2.25;;;27.30;92.50;;;;;;5004682;28;20210;-54
2022/10/18 00:57:54;;;;;;;8.57;2.13;;;27.30;92.60;;;;;;5006002;28;20025;-53
2022/10/18 01:00:23;;;;;;;9.52;4.82;;;27.30;92.60;;;;;;5000145;28;20034;-54
2022/10/18 01:02:50;;;;;;;11.48;3.30;;;27.20;92.40;;;;;;5000277;28;20085;-56
2022/10/18 01:05:19;;;;;;;5.90;2.60;;;27.20;92.40;;;;;;4999744;28;20022;-58
2022/10/18 01:08:43;;;;;;;9.93;3.90;;;27.20;92.60;;;;;;4996831;28;20317;-54
2022/10/18 01:11:46;;;;;;;12.75;6.35;;;27.30;92.50;;;;;;4965528;29;20035;-56
2022/10/18 01:14:37;;;;;;;13.10;8.27;;;27.20;92.60;;;;;;4945554;29;20035;-52
2022/10/18 01:17:20;;;;;;;14.50;8.57;;;27.30;92.70;;;;;;5000656;28;20049;-54
2022/10/18 01:20:22;;;;;;;12.77;8.90;;;27.30;92.90;;;;;;5003167;28;20045;-55
2022/10/18 01:23:19;;;;;;;17.67;11.70;;;27.30;93.20;;;;;;5033190;28;20053;-55
2022/10/18 01:26:14;;;;;;;12.20;8.60;;;27.30;93.50;;;;;;5006220;28;20054;-53
2022/10/18 01:29:11;;;;;;;11.95;5.70;;;27.30;93.90;;;;;;4996783;28;20247;-58
2022/10/18 01:32:18;;;;;;;9.60;5.80;;;27.30;94.10;;;;;;5000573;28;20069;-55
2022/10/18 01:34:46;;;;;;;7.05;3.90;;;27.30;94.30;;;;;;4963605;29;20055;-53
2022/10/18 01:37:16;;;;;;;8.05;3.47;;;27.30;94.30;;;;;;5011889;28;20046;-53
2022/10/18 01:39:46;;;;;;;8.93;3.83;;;27.30;94.50;;;;;;5030873;28;20030;-53
2022/10/18 01:42:17;;;;;;;7.20;3.55;;;27.30;94.60;;;;;;5005775;28;20041;-49
2022/10/18 01:44:49;;;;;;;10.88;3.40;;;27.30;94.50;;;;;;5004474;28;20093;-51
2022/10/18 01:47:17;;;;;;;9.57;3.40;;;27.30;94.60;;;;;;5005558;28;20033;-50
2022/10/18 01:49:47;;;;;;;8.95;3.60;;;27.30;94.50;;;;;;5005490;28;20022;-52
2022/10/18 01:52:16;;;;;;;10.20;3.15;;;27.30;94.40;;;;;;5001918;28;20022;-49
2022/10/18 01:54:47;;;;;;;9.00;3.10;;;27.30;94.40;;;;;;5010899;28;20089;-56
2022/10/18 01:58:13;;;;;;;5.95;3.25;;;27.30;94.30;;;;;;5004510;28;20022;-50
2022/10/18 02:00:48;;;;;;;7.65;2.90;;;27.40;94.30;;;;;;4996505;28;20050;-51
2022/10/18 02:03:23;;;;;;;7.38;2.83;;;27.40;94.20;;;;;;5011986;28;20043;-49
2022/10/18 02:06:08;;;;;;;8.73;2.42;;;27.40;94.20;;;;;;5005993;28;20090;-50
2022/10/18 02:08:43;;;;;;;7.25;2.70;;;27.40;94.20;;;;;;5006641;28;20034;-53
2022/10/18 02:11:13;;;;;;;6.85;2.72;;;27.40;94.30;;;;;;5011250;28;20030;-49
2022/10/18 02:13:45;;;;;;;8.70;2.70;;;27.40;94.30;;;;;;5005052;28;20050;-49
2022/10/18 02:16:19;;;;;;;6.68;2.75;;;27.40;94.20;;;;;;5004026;28;20026;-50
2022/10/18 02:18:57;;;;;;;5.97;2.30;;;27.40;94.20;;;;;;5003608;28;20253;-53
2022/10/18 02:21:25;;;;;;;8.23;3.00;;;27.40;94.10;;;;;;5005651;28;20041;-52
2022/10/18 02:23:55;;;;;;;5.20;2.47;;;27.40;94.10;;;;;;5004620;28;20100;-49
2022/10/18 02:26:22;;;;;;;8.63;2.60;;;27.40;94.20;;;;;;5005481;28;20046;-47
2022/10/18 02:28:49;;;;;;;6.90;2.55;;;27.40;94.10;;;;;;5001655;28;20041;-53
2022/10/18 02:31:19;;;;;;;4.88;2.30;;;27.40;94.00;;;;;;4999601;28;20010;-52
2022/10/18 02:34:00;;;;;;;4.43;2.05;;;27.40;93.80;;;;;;4996249;28;20030;-49
2022/10/18 02:36:58;;;;;;;9.40;1.95;;;27.40;93.60;;;;;;5005393;28;20093;-51
2022/10/18 02:39:41;;;;;;;7.28;1.67;;;27.40;93.60;;;;;;5004707;28;20026;-45
2022/10/18 02:42:11;;;;;;;5.82;1.90;;;27.30;93.50;;;;;;5003837;28;20080;-52
2022/10/18 02:44:38;;;;;;;6.05;1.83;;;27.30;93.50;;;;;;5004321;28;20197;-52
2022/10/18 02:47:06;;;;;;;5.45;2.08;;;27.30;93.40;;;;;;5004995;28;20057;-53
2022/10/18 02:49:33;;;;;;;2.70;1.48;;;27.30;93.30;;;;;;5005303;28;20026;-49
2022/10/18 02:52:00;;;;;;;4.50;1.80;;;27.30;93.20;;;;;;5003595;28;20218;-46
2022/10/18 02:54:26;;;;;;;3.55;1.27;;;27.30;92.90;;;;;;4996691;28;20057;-48
2022/10/18 02:56:53;;;;;;;9.15;1.55;;;27.30;92.90;;;;;;5005151;28;20360;-48
2022/10/18 02:59:19;;;;;;;7.30;1.50;;;27.30;92.70;;;;;;5005066;28;20330;-47
2022/10/18 03:01:52;;;;;;;4.90;1.50;;;27.30;92.60;;;;;;5005055;28;20018;-50
2022/10/18 03:04:18;;;;;;;5.32;1.50;;;27.30;92.50;;;;;;5002331;28;20038;-48
2022/10/18 03:06:45;;;;;;;4.22;1.38;;;27.30;92.60;;;;;;5004233;28;20037;-51
2022/10/18 03:09:11;;;;;;;5.80;1.30;;;27.30;92.60;;;;;;5002673;28;20026;-52
2022/10/18 03:11:38;;;;;;;6.45;1.92;;;27.30;92.50;;;;;;5004062;28;20022;-50
2022/10/18 03:14:04;;;;;;;5.32;1.75;;;27.30;92.40;;;;;;5004793;28;20026;-55
2022/10/18 03:16:32;;;;;;;3.58;1.83;;;27.30;92.30;;;;;;5004711;28;20034;-53
2022/10/18 03:18:59;;;;;;;5.93;1.63;;;27.30;92.40;;;;;;5004580;28;20056;-50
2022/10/18 03:21:26;;;;;;;3.13;1.30;;;27.30;92.30;;;;;;5004742;28;20065;-51
2022/10/18 03:23:52;;;;;;;6.25;1.73;;;27.30;92.20;;;;;;5002505;28;20038;-52
2022/10/18 03:26:20;;;;;;;6.85;1.45;;;27.30;92.20;;;;;;5004168;28;20051;-53
2022/10/18 03:28:47;;;;;;;5.85;1.63;;;27.30;92.20;;;;;;5004272;28;20088;-47
2022/10/18 03:31:13;;;;;;;6.65;1.27;;;27.30;92.20;;;;;;5004617;28;20034;-51
2022/10/18 03:33:40;;;;;;;5.85;1.60;;;27.20;92.10;;;;;;5002972;28;20318;-51
2022/10/18 03:36:06;;;;;;;5.97;1.38;;;27.20;92.20;;;;;;5003660;28;20045;-50
2022/10/18 03:38:33;;;;;;;2.95;1.35;;;27.20;92.10;;;;;;5004251;28;20037;-49
2022/10/18 03:41:00;;;;;;;6.05;1.52;;;27.20;92.20;;;;;;5004241;28;20085;-50
2022/10/18 03:43:26;;;;;;;5.28;1.58;;;27.20;92.30;;;;;;5003243;28;20026;-50
2022/10/18 03:45:53;;;;;;;8.80;6.97;;;27.20;92.30;;;;;;5004341;28;20034;-55
2022/10/18 03:48:19;;;;;;;18.77;14.85;;;27.20;92.30;;;;;;5003996;28;20026;-49
2022/10/18 03:50:46;;;;;;;16.58;11.98;;;27.20;92.30;;;;;;5004027;28;20030;-51
2022/10/18 03:53:13;;;;;;;12.48;8.27;;;27.20;92.40;;;;;;5004127;28;20034;-54
2022/10/18 03:55:42;;;;;;;8.30;5.72;;;27.10;92.40;;;;;;5003980;28;20097;-48
2022/10/18 03:58:10;;;;;;;7.50;4.50;;;27.20;92.40;;;;;;5004197;28;20085;-51
2022/10/18 04:00:36;;;;;;;6.57;4.47;;;27.20;92.50;;;;;;5006129;28;20022;-54
2022/10/18 04:03:03;;;;;;;5.25;3.85;;;27.20;92.60;;;;;;5007369;28;20106;-51
2022/10/18 04:05:30;;;;;;;8.77;3.58;;;27.10;92.60;;;;;;5007672;28;20342;-51
2022/10/18 04:07:57;;;;;;;10.43;3.42;;;27.10;92.60;;;;;;5007924;28;20026;-48
2022/10/18 04:10:23;;;;;;;7.18;2.70;;;27.10;92.60;;;;;;5007363;28;20026;-48
2022/10/18 04:12:50;;;;;;;6.45;2.60;;;27.10;92.40;;;;;;5007555;28;20022;-54
2022/10/18 04:15:17;;;;;;;3.70;1.90;;;27.10;92.50;;;;;;5007427;28;20052;-51
2022/10/18 04:17:43;;;;;;;4.25;1.85;;;27.10;92.50;;;;;;5006439;28;20054;-50
2022/10/18 04:20:10;;;;;;;5.57;1.60;;;27.10;92.50;;;;;;5007482;28;20397;-49
2022/10/18 04:22:37;;;;;;;5.20;2.08;;;27.10;92.50;;;;;;5007704;28;20034;-49
2022/10/18 04:25:04;;;;;;;5.68;1.85;;;27.10;92.50;;;;;;5007329;28;20042;-48
2022/10/18 04:27:30;;;;;;;3.70;1.52;;;27.10;92.50;;;;;;5007675;28;20030;-49
2022/10/18 04:29:57;;;;;;;4.50;1.40;;;27.10;92.40;;;;;;5007238;28;20206;-48
2022/10/18 04:32:25;;;;;;;5.15;1.50;;;27.10;92.60;;;;;;5007678;28;20321;-48
2022/10/18 04:34:52;;;;;;;4.63;1.40;;;27.10;92.60;;;;;;5007126;28;20040;-49
2022/10/18 04:37:18;;;;;;;4.80;1.52;;;27.10;92.60;;;;;;5007075;28;20376;-52
2022/10/18 04:39:47;;;;;;;8.30;1.23;;;27.10;92.60;;;;;;5007154;28;20113;-48
2022/10/18 04:42:14;;;;;;;4.45;1.17;;;27.10;92.60;;;;;;5007381;28;20049;-48
2022/10/18 04:44:40;;;;;;;5.32;1.10;;;27.10;92.60;;;;;;5006908;28;20214;-49
2022/10/18 04:47:07;;;;;;;9.23;1.20;;;27.00;92.60;;;;;;5007361;28;20038;-48
2022/10/18 04:49:33;;;;;;;8.80;1.27;;;27.10;92.60;;;;;;5006787;28;20085;-51
2022/10/18 04:52:00;;;;;;;2.40;1.20;;;27.10;92.70;;;;;;5007240;28;20086;-50
2022/10/18 04:54:26;;;;;;;3.65;1.27;;;27.10;92.60;;;;;;5005972;28;20093;-53
2022/10/18 04:56:54;;;;;;;5.28;1.40;;;27.00;92.60;;;;;;5007004;28;20034;-48
2022/10/18 04:59:21;;;;;;;4.60;1.35;;;27.10;92.80;;;;;;5006670;28;20026;-52
2022/10/18 05:01:47;;;;;;;5.25;1.08;;;27.00;92.70;;;;;;5007047;28;20033;-51
2022/10/18 05:04:14;;;;;;;4.28;1.40;;;27.10;92.80;;;;;;5006475;28;20030;-48
2022/10/18 05:06:41;;;;;;;3.70;1.30;;;27.00;92.80;;;;;;5006873;28;20041;-49
2022/10/18 05:09:07;;;;;;;5.78;1.40;;;27.00;92.90;;;;;;5006605;28;20022;-46
2022/10/18 05:11:34;;;;;;;3.25;1.08;;;27.00;92.90;;;;;;5006477;28;20038;-48
2022/10/18 05:14:00;;;;;;;5.40;1.58;;;27.00;93.00;;;;;;5006512;28;20026;-51
2022/10/18 05:16:27;;;;;;;4.18;1.30;;;27.00;93.10;;;;;;5006733;28;20298;-51
2022/10/18 05:18:54;;;;;;;3.83;1.30;;;27.00;93.20;;;;;;5006248;28;20038;-49
2022/10/18 05:21:20;;;;;;;7.40;1.60;;;27.00;93.30;;;;;;5006278;28;20022;-49
2022/10/18 05:23:47;;;;;;;4.10;1.45;;;27.00;93.30;;;;;;5006294;28;20030;-47
2022/10/18 05:26:13;;;;;;;4.70;1.40;;;27.00;93.50;;;;;;5006236;28;20053;-53
2022/10/18 05:28:40;;;;;;;6.72;1.40;;;27.00;93.60;;;;;;5006210;28;20018;-49
2022/10/18 05:31:08;;;;;;;3.40;1.45;;;27.00;93.60;;;;;;5006346;28;20085;-49
2022/10/18 05:33:35;;;;;;;4.38;1.15;;;27.00;93.80;;;;;;5005922;28;20068;-48
2022/10/18 05:36:01;;;;;;;5.05;1.38;;;27.00;93.80;;;;;;5006251;28;20120;-50
2022/10/18 05:38:29;;;;;;;3.58;1.50;;;27.00;93.90;;;;;;5006055;28;20030;-53
2022/10/18 05:40:56;;;;;;;5.93;1.60;;;27.00;94.10;;;;;;5005798;28;20041;-48
2022/10/18 05:43:26;;;;;;;4.75;1.42;;;27.00;94.10;;;;;;5005744;28;20034;-52
2022/10/18 05:45:53;;;;;;;5.15;1.70;;;27.00;94.20;;;;;;5006045;28;20030;-50
2022/10/18 05:48:20;;;;;;;3.58;1.48;;;27.00;94.30;;;;;;5005722;28;20249;-54
2022/10/18 05:50:46;;;;;;;5.63;1.60;;;26.90;94.30;;;;;;5005776;28;20030;-49
2022/10/18 05:53:13;;;;;;;5.38;1.50;;;27.00;94.30;;;;;;5005665;28;20052;-49
2022/10/18 05:55:39;;;;;;;3.22;1.48;;;26.90;94.40;;;;;;5005583;28;20038;-52
2022/10/18 05:58:06;;;;;;;4.60;1.42;;;27.00;94.50;;;;;;5005573;28;20207;-49
2022/10/18 06:00:32;;;;;;;4.00;1.65;;;26.90;94.50;;;;;;5005496;28;20030;-53
2022/10/18 06:02:59;;;;;;;3.10;1.65;;;26.90;94.50;;;;;;5005380;28;20037;-52
2022/10/18 06:05:25;;;;;;;5.13;1.67;;;26.90;94.50;;;;;;5005328;28;20026;-56
2022/10/18 06:07:52;;;;;;;8.13;1.80;;;26.90;94.50;;;;;;5005276;28;20092;-51
2022/10/18 06:10:19;;;;;;;5.05;1.60;;;26.90;94.60;;;;;;5005667;28;20093;-53
2022/10/18 06:12:45;;;;;;;6.20;1.60;;;26.90;94.60;;;;;;5005607;28;20093;-49
2022/10/18 06:15:12;;;;;;;7.97;2.15;;;26.90;94.50;;;;;;5005378;28;20026;-51
2022/10/18 06:17:38;;;;;;;6.00;1.80;;;26.90;94.40;;;;;;5005704;28;20026;-48
2022/10/18 06:20:06;;;;;;;6.35;1.50;;;26.90;94.20;;;;;;5005132;28;20030;-53
2022/10/18 06:22:33;;;;;;;7.88;1.63;;;26.90;94.20;;;;;;5005030;28;20306;-50
2022/10/18 06:24:59;;;;;;;7.13;1.60;;;26.80;94.10;;;;;;5004914;28;20353;-48
2022/10/18 06:27:26;;;;;;;4.53;1.52;;;26.90;94.10;;;;;;5005385;28;20290;-48
2022/10/18 06:29:52;;;;;;;4.43;1.42;;;26.80;94.10;;;;;;5005021;28;20022;-49
2022/10/18 06:32:19;;;;;;;4.63;1.70;;;26.80;94.10;;;;;;5005480;28;20102;-48
2022/10/18 06:34:45;;;;;;;6.40;1.40;;;26.80;94.00;;;;;;5004890;28;20033;-47
2022/10/18 06:37:12;;;;;;;6.25;1.50;;;26.80;94.00;;;;;;5005297;28;20044;-48
2022/10/18 06:39:39;;;;;;;5.03;1.67;;;26.80;94.00;;;;;;5005197;28;20072;-48
2022/10/18 06:42:06;;;;;;;7.00;1.48;;;26.80;94.00;;;;;;5005062;28;20337;-49
2022/10/18 06:44:32;;;;;;;4.13;1.60;;;26.80;94.10;;;;;;5004881;28;20097;-52
2022/10/18 06:47:00;;;;;;;5.93;1.60;;;26.80;94.10;;;;;;5005252;28;20317;-54
2022/10/18 06:49:27;;;;;;;6.63;1.70;;;26.80;94.10;;;;;;5004616;28;20026;-50
2022/10/18 06:51:54;;;;;;;5.10;1.67;;;26.80;94.10;;;;;;5005232;28;20093;-49
2022/10/18 06:54:20;;;;;;;3.75;1.50;;;26.80;94.30;;;;;;5004683;28;20229;-51
2022/10/18 06:56:47;;;;;;;8.57;1.65;;;26.80;94.20;;;;;;5004820;28;20034;-50
2022/10/18 06:59:14;;;;;;;5.00;1.50;;;26.80;94.20;;;;;;5004837;28;20225;-49
2022/10/18 07:01:40;;;;;;;8.05;1.48;;;26.80;94.20;;;;;;5004967;28;20065;-49
2022/10/18 07:04:07;;;;;;;6.78;1.67;;;26.70;94.20;;;;;;5001232;28;20026;-50
2022/10/18 07:06:35;;;;;;;8.02;2.03;;;26.70;94.30;;;;;;4995422;28;20109;-50
2022/10/18 07:09:02;;;;;;;5.28;1.77;;;26.80;94.40;;;;;;5004469;28;20033;-49
2022/10/18 07:11:29;;;;;;;8.68;1.50;;;26.70;94.40;;;;;;5004545;28;20026;-48
2022/10/18 07:14:02;;;;;;;4.00;1.50;;;26.70;94.40;;;;;;5004495;28;20018;-47
2022/10/18 07:16:29;;;;;;;5.47;1.70;;;26.70;94.40;;;;;;5004776;28;20073;-51
2022/10/18 07:18:56;;;;;;;7.45;2.00;;;26.70;94.30;;;;;;5003575;28;20041;-47
2022/10/18 07:21:24;;;;;;;6.90;1.50;;;26.70;94.30;;;;;;5004603;28;20040;-51
2022/10/18 07:23:52;;;;;;;4.32;1.42;;;26.70;94.30;;;;;;5004372;28;20041;-49
2022/10/18 07:26:20;;;;;;;5.85;1.70;;;26.70;94.30;;;;;;5004306;28;20050;-53
2022/10/18 07:28:49;;;;;;;4.75;1.50;;;26.70;94.20;;;;;;5004512;28;20037;-52
2022/10/18 07:31:16;;;;;;;8.38;1.55;;;26.70;94.30;;;;;;5004226;28;20054;-55
2022/10/18 07:33:43;;;;;;;4.88;1.45;;;26.70;94.20;;;;;;5004194;28;20037;-53
2022/10/18 07:36:11;;;;;;;8.05;1.80;;;26.70;94.20;;;;;;5007577;28;20035;-55
2022/10/18 07:38:38;;;;;;;3.97;2.00;;;26.60;94.10;;;;;;5008184;28;20023;-48
2022/10/18 07:41:06;;;;;;;5.20;1.88;;;26.60;94.00;;;;;;5008139;28;20209;-48
2022/10/18 07:43:33;;;;;;;3.50;1.45;;;26.60;93.90;;;;;;5008029;28;20037;-49
2022/10/18 07:46:03;;;;;;;4.38;1.58;;;26.60;93.80;;;;;;5008185;28;20102;-54
2022/10/18 07:48:30;;;;;;;5.13;1.75;;;26.60;93.70;;;;;;5007866;28;20030;-51
2022/10/18 07:51:00;;;;;;;4.40;1.42;;;26.60;93.70;;;;;;5008102;28;20033;-49
2022/10/18 07:53:28;;;;;;;4.45;1.50;;;26.60;93.60;;;;;;5007883;28;20026;-50
2022/10/18 07:55:59;;;;;;;10.98;1.77;;;26.60;93.50;;;;;;5008197;28;20050;-50
2022/10/18 07:58:26;;;;;;;5.70;1.48;;;26.60;93.40;;;;;;5007843;28;20018;-48
2022/10/18 08:00:53;;;;;;;7.32;1.23;;;26.50;93.50;;;;;;5007936;28;20038;-48
2022/10/18 08:03:20;;;;;;;3.42;1.35;;;26.50;93.30;;;;;;5007658;28;20093;-50
2022/10/18 08:05:54;;;;;;;6.22;1.50;;;26.50;93.30;;;;;;5007829;28;20038;-47
2022/10/18 08:08:24;;;;;;;6.18;1.77;;;26.50;93.20;;;;;;5007829;28;20025;-50
2022/10/18 08:10:51;;;;;;;4.35;1.30;;;26.50;93.20;;;;;;5007553;28;20113;-49
2022/10/18 08:13:17;;;;;;;8.48;1.90;;;26.50;93.20;;;;;;5007557;28;20250;-52
2022/10/18 08:15:44;;;;;;;6.90;1.45;;;26.50;93.10;;;;;;5007438;28;20034;-50
2022/10/18 08:18:11;;;;;;;6.25;1.75;;;26.50;93.10;;;;;;5007490;28;20340;-50
2022/10/18 08:20:44;;;;;;;4.45;1.40;;;26.40;93.00;;;;;;5007438;28;20025;-47
2022/10/18 08:23:11;;;;;;;3.75;1.45;;;26.50;93.00;;;;;;5007172;28;20034;-49
2022/10/18 08:25:38;;;;;;;4.18;1.30;;;26.40;93.00;;;;;;5007257;28;20238;-52
2022/10/18 08:28:05;;;;;;;5.35;1.40;;;26.40;92.90;;;;;;5007438;28;20030;-53
2022/10/18 08:30:32;;;;;;;6.35;1.52;;;26.40;92.90;;;;;;5007162;28;20314;-54
2022/10/18 08:32:58;;;;;;;5.13;1.45;;;26.40;92.90;;;;;;5007490;28;20102;-49
2022/10/18 08:35:25;;;;;;;6.57;1.25;;;26.40;92.90;;;;;;5007146;28;20065;-51
2022/10/18 08:37:51;;;;;;;5.75;1.48;;;26.40;93.10;;;;;;5007041;28;20026;-46
2022/10/18 08:40:19;;;;;;;2.88;1.42;;;26.40;92.90;;;;;;5007196;28;20229;-47
2022/10/18 08:42:59;;;;;;;3.90;1.25;;;26.30;92.90;;;;;;5006991;28;20054;-53
2022/10/18 08:45:28;;;;;;;3.08;1.23;;;26.30;92.90;;;;;;5006468;28;20032;-50
2022/10/18 08:47:56;;;;;;;4.95;1.58;;;26.30;92.90;;;;;;5006962;28;20034;-49
2022/10/18 08:50:44;;;;;;;5.22;1.10;;;26.40;93.00;;;;;;5006732;28;20022;-54
2022/10/18 08:53:28;;;;;;;5.70;1.27;;;26.30;93.00;;;;;;5006809;28;20038;-55
2022/10/18 08:56:20;;;;;;;4.95;1.35;;;26.30;93.00;;;;;;5007119;28;20033;-57
2022/10/18 08:58:46;;;;;;;2.67;1.20;;;26.30;93.10;;;;;;5006594;28;20030;-59
2022/10/18 09:01:48;;;;;;;6.00;1.45;;;26.30;93.10;;;;;;5006862;28;20030;-59
2022/10/18 09:04:45;;;;;;;4.57;1.50;;;26.30;93.10;;;;;;5007150;28;20326;-49
2022/10/18 09:07:26;;;;;;;4.55;1.35;;;26.30;93.10;;;;;;5006911;28;20073;-50
2022/10/18 09:10:19;;;;;;;3.63;1.30;;;26.30;93.20;;;;;;5006828;28;20030;-51
2022/10/18 09:13:10;;;;;;;2.92;1.42;;;26.20;93.10;;;;;;5006361;28;20080;-52
2022/10/18 09:16:03;;;;;;;4.13;1.48;;;26.20;93.30;;;;;;5006214;28;20286;-56
2022/10/18 09:18:57;;;;;;;6.20;1.38;;;26.20;93.40;;;;;;5006155;28;20053;-51
2022/10/18 09:21:57;;;;;;;11.80;1.95;;;26.20;93.40;;;;;;5006481;28;20034;-53
2022/10/18 09:24:57;;;;;;;10.88;1.80;;;26.20;93.50;;;;;;5006084;28;20018;-52
2022/10/18 09:27:52;;;;;;;10.80;1.70;;;26.20;93.50;;;;;;5006352;28;20084;-49
2022/10/18 09:30:39;;;;;;;8.43;1.80;;;26.20;93.60;;;;;;5005614;28;20049;-53
2022/10/18 09:33:15;;;;;;;8.45;1.48;;;26.20;93.60;;;;;;5006132;28;20230;-52
2022/10/18 09:35:56;;;;;;;6.70;1.50;;;26.20;93.70;;;;;;5005804;28;20046;-56
2022/10/18 09:38:29;;;;;;;6.00;1.70;;;26.20;93.70;;;;;;5005985;28;20221;-53
2022/10/18 09:41:07;;;;;;;7.97;1.52;;;26.10;93.70;;;;;;5005930;28;20045;-54
2022/10/18 09:43:45;;;;;;;4.20;1.60;;;26.20;93.80;;;;;;5005910;28;20381;-49
2022/10/18 09:46:14;;;;;;;3.72;1.65;;;26.20;93.90;;;;;;5005529;28;20104;-47
2022/10/18 09:49:13;;;;;;;3.72;1.60;;;26.10;93.80;;;;;;5005812;28;20037;-47
2022/10/18 09:51:41;;;;;;;6.45;1.90;;;26.10;93.80;;;;;;5005762;28;20050;-46
2022/10/18 09:54:38;;;;;;;5.57;1.40;;;26.10;93.90;;;;;;5005910;28;20030;-54
2022/10/18 09:57:11;;;;;;;6.32;1.70;;;26.10;93.90;;;;;;5005692;28;20207;-50
2022/10/18 09:59:46;;;;;;;7.75;1.80;;;26.10;94.00;;;;;;5005453;28;20040;-48
2022/10/18 10:02:15;;;;;;;5.20;1.67;;;26.10;94.00;;;;;;5005733;28;20101;-48
2022/10/18 10:04:41;;;;;;;6.30;1.80;;;26.10;94.10;;;;;;5005313;28;20247;-50
2022/10/18 10:07:12;;;;;;;6.75;1.90;;;26.10;94.10;;;;;;5004951;28;20042;-54
2022/10/18 10:10:17;;;;;;;5.22;1.67;;;26.00;94.10;;;;;;5005355;28;20081;-56
2022/10/18 10:12:44;;;;;;;13.63;1.90;;;26.10;94.10;;;;;;5005561;28;20049;-49
2022/10/18 10:15:24;;;;;;;7.32;1.88;;;26.00;94.10;;;;;;5005225;28;20094;-53
2022/10/18 10:18:01;;;;;;;6.13;2.00;;;26.10;94.20;;;;;;5005056;28;20437;-55
2022/10/18 10:20:35;;;;;;;7.45;1.92;;;26.00;94.10;;;;;;5005098;28;20018;-49
2022/10/18 10:23:12;;;;;;;5.75;2.17;;;26.00;94.10;;;;;;5004975;28;20314;-51
2022/10/18 10:25:40;;;;;;;9.38;2.47;;;26.00;94.20;;;;;;5005071;28;20050;-52
2022/10/18 10:28:19;;;;;;;6.47;2.15;;;26.00;94.20;;;;;;5004119;28;20037;-54
2022/10/18 10:30:46;;;;;;;6.45;2.40;;;26.00;94.20;;;;;;5005141;28;20036;-51
2022/10/18 10:33:37;;;;;;;6.93;2.30;;;26.00;94.30;;;;;;5005162;28;20348;-51
2022/10/18 10:36:15;;;;;;;8.85;3.00;;;26.00;94.30;;;;;;5004641;28;20054;-53
2022/10/18 10:38:41;;;;;;;10.45;4.50;;;26.00;94.30;;;;;;5004012;28;20341;-51
2022/10/18 10:41:22;;;;;;;9.43;3.60;;;26.00;94.40;;;;;;5004069;28;20038;-56
2022/10/18 10:43:50;;;;;;;8.95;3.80;;;26.00;94.40;;;;;;5003049;28;20325;-48
2022/10/18 10:46:18;;;;;;;11.90;3.88;;;26.00;94.40;;;;;;5004739;28;20036;-55
2022/10/18 10:48:56;;;;;;;7.68;3.30;;;26.00;94.40;;;;;;5003939;28;20030;-50
2022/10/18 10:51:32;;;;;;;6.20;2.92;;;26.00;94.40;;;;;;4989792;28;20022;-47
2022/10/18 10:54:12;;;;;;;14.95;3.58;;;26.00;94.50;;;;;;4999618;28;20109;-54
2022/10/18 10:56:59;;;;;;;7.38;3.50;;;26.00;94.50;;;;;;5000654;28;20034;-51
2022/10/18 10:59:28;;;;;;;13.05;3.75;;;26.00;94.50;;;;;;5003827;28;20041;-54
2022/10/18 11:02:20;;;;;;;6.93;3.97;;;26.00;94.50;;;;;;5004750;28;20026;-49
2022/10/18 11:04:52;;;;;;;8.20;3.63;;;26.00;94.60;;;;;;5004750;28;20096;-54
2022/10/18 11:07:40;;;;;;;9.48;4.32;;;26.00;94.70;;;;;;5004363;28;20041;-49
2022/10/18 11:10:09;;;;;;;10.43;3.97;;;26.00;94.70;;;;;;5004419;28;20030;-51
2022/10/18 11:13:21;;;;;;;12.35;4.15;;;26.10;94.70;;;;;;5004771;28;20026;-48
2022/10/18 11:15:59;;;;;;;11.88;4.28;;;26.10;94.70;;;;;;5003725;28;20077;-52
2022/10/18 11:18:32;;;;;;;12.32;3.45;;;26.10;94.80;;;;;;5004451;28;20019;-48
2022/10/18 11:21:16;;;;;;;8.23;3.30;;;26.10;94.60;;;;;;5003900;28;20094;-50
2022/10/18 11:23:44;;;;;;;7.15;2.70;;;26.10;94.50;;;;;;5004246;28;20026;-55
2022/10/18 11:26:10;;;;;;;11.25;2.78;;;26.10;94.40;;;;;;5003966;28;20110;-54
2022/10/18 11:29:05;;;;;;;7.55;2.50;;;26.10;94.20;;;;;;5003860;28;20238;-53
2022/10/18 11:31:44;;;;;;;5.22;2.25;;;26.20;94.30;;;;;;5003784;28;20027;-57
2022/10/18 11:34:26;;;;;;;4.88;2.05;;;26.20;94.10;;;;;;5002706;28;20026;-57
2022/10/18 11:37:33;;;;;;;4.63;2.38;;;26.20;94.00;;;;;;5002768;28;20088;-56
2022/10/18 11:40:10;;;;;;;6.32;1.70;;;26.20;94.00;;;;;;5002471;28;20214;-61
2022/10/18 11:42:49;;;;;;;5.10;1.90;;;26.30;94.10;;;;;;5003062;28;20046;-60
2022/10/18 11:45:40;;;;;;;6.53;1.80;;;26.30;94.00;;;;;;5002508;28;20023;-55
2022/10/18 11:48:15;;;;;;;3.35;1.80;;;26.30;93.90;;;;;;5003982;28;20034;-56
2022/10/18 11:50:49;;;;;;;6.63;1.63;;;26.30;93.90;;;;;;5004112;28;20202;-57
2022/10/18 11:53:33;;;;;;;5.07;1.83;;;26.30;93.80;;;;;;5003991;28;20321;-55
2022/10/18 11:56:31;;;;;;;3.50;1.75;;;26.30;93.70;;;;;;5004110;28;20184;-55
2022/10/18 11:59:23;;;;;;;4.88;1.55;;;26.30;93.70;;;;;;5003887;28;20034;-59
2022/10/18 12:02:05;;;;;;;8.27;1.77;;;26.40;93.80;;;;;;5004281;28;20018;-59
2022/10/18 12:04:35;;;;;;;5.85;1.90;;;26.40;93.80;;;;;;5004025;28;20101;-55
2022/10/18 12:07:05;;;;;;;3.83;2.05;;;26.40;93.80;;;;;;5004339;28;20030;-54
2022/10/18 12:09:42;;;;;;;7.80;1.65;;;26.40;93.80;;;;;;5004096;28;20038;-53
2022/10/18 12:12:25;;;;;;;3.25;1.90;;;26.40;93.80;;;;;;5004319;28;20023;-53
2022/10/18 12:15:04;;;;;;;3.53;1.70;;;26.40;93.80;;;;;;5003767;28;20113;-56
2022/10/18 12:17:43;;;;;;;7.35;2.47;;;26.50;93.90;;;;;;5004325;28;20084;-59
2022/10/18 12:20:20;;;;;;;4.18;2.15;;;26.50;93.90;;;;;;5004242;28;20030;-59
2022/10/18 12:23:09;;;;;;;10.40;2.13;;;26.50;93.90;;;;;;5007328;28;20321;-53
2022/10/18 12:25:40;;;;;;;5.53;1.73;;;26.50;94.00;;;;;;5007024;28;20042;-58
2022/10/18 12:28:47;;;;;;;6.68;1.83;;;26.50;93.90;;;;;;5007308;28;20356;-53
2022/10/18 12:31:49;;;;;;;6.20;1.77;;;26.60;94.00;;;;;;5005518;28;20062;-53
2022/10/18 12:34:21;;;;;;;3.83;1.85;;;26.60;94.00;;;;;;5007220;28;20034;-53
2022/10/18 12:36:55;;;;;;;4.65;2.00;;;26.60;94.00;;;;;;5007334;28;20034;-57
2022/10/18 12:39:52;;;;;;;7.07;1.88;;;26.60;94.00;;;;;;5007036;28;20026;-56
2022/10/18 12:42:27;;;;;;;3.92;1.77;;;26.70;94.00;;;;;;5007355;28;20050;-56
2022/10/18 12:45:19;;;;;;;6.00;2.03;;;26.70;93.90;;;;;;5006937;28;20026;-54
2022/10/18 12:47:45;;;;;;;7.43;1.90;;;26.70;93.90;;;;;;5006977;28;20034;-60
2022/10/18 12:50:33;;;;;;;4.35;1.63;;;26.70;93.90;;;;;;5006951;28;20292;-63
2022/10/18 12:53:25;;;;;;;6.88;1.85;;;26.80;94.00;;;;;;5006834;28;20061;-60
2022/10/18 12:55:52;;;;;;;3.83;1.60;;;26.80;94.00;;;;;;5007072;28;20030;-61
2022/10/18 12:58:28;;;;;;;6.60;1.70;;;26.80;94.00;;;;;;5006796;28;20325;-61
2022/10/18 13:01:00;;;;;;;2.95;1.67;;;26.80;94.00;;;;;;5006726;28;20206;-55
2022/10/18 13:03:30;;;;;;;3.33;1.30;;;26.90;94.00;;;;;;5007060;28;20214;-58
2022/10/18 13:05:59;;;;;;;4.97;1.48;;;26.90;94.00;;;;;;5006980;28;20115;-63
2022/10/18 13:08:36;;;;;;;2.97;1.63;;;26.90;94.00;;;;;;5006399;28;20090;-54
2022/10/18 13:11:10;;;;;;;4.28;1.67;;;26.90;94.00;;;;;;5006993;28;20337;-57
2022/10/18 13:13:52;;;;;;;4.30;1.38;;;26.90;93.90;;;;;;5006249;28;20061;-57
2022/10/18 13:16:46;;;;;;;2.38;1.27;;;27.00;93.90;;;;;;5006630;28;20084;-56